Time;durP1;ratioP1;P1;durP2;ratioP2;P2;SDS_P1;SDS_P2;PMS_P1;PMS_P2;Temp;Humidity;BMP_temperature;BMP_pressure;BME280_temperature;BME280_humidity;BME280_pressure;Samples;Min_cycle;Max_cycle;Signal;HPM_P1;HPM_P2
2021/07/23 00:01:43;;;;;;;3.63;2.77;;;;;;;;;;4512479;28;20137;-61
2021/07/23 00:03:54;;;;;;;3.10;2.40;;;;;;;;;;4531622;28;20037;-60
2021/07/23 00:06:05;;;;;;;4.23;2.87;;;;;;;;;;4523801;28;20029;-60
2021/07/23 00:08:15;;;;;;;3.85;2.78;;;;;;;;;;4531666;28;20872;-60
2021/07/23 00:10:26;;;;;;;3.23;2.67;;;;;;;;;;4531550;28;20048;-61
2021/07/23 00:12:36;;;;;;;3.80;2.50;;;;;;;;;;4532039;28;20041;-60
2021/07/23 00:14:47;;;;;;;3.67;3.00;;;;;;;;;;4517016;28;20042;-61
2021/07/23 00:16:57;;;;;;;4.53;2.67;;;;;;;;;;4531251;28;20458;-61
2021/07/23 00:19:08;;;;;;;5.27;2.83;;;;;;;;;;4530743;28;20035;-61
2021/07/23 00:21:18;;;;;;;3.30;2.50;;;;;;;;;;4531533;28;20069;-62
2021/07/23 00:23:29;;;;;;;2.70;2.23;;;;;;;;;;4532467;28;20048;-62
2021/07/23 00:25:39;;;;;;;3.23;2.57;;;;;;;;;;4515970;28;20062;-62
2021/07/23 00:27:49;;;;;;;3.10;2.50;;;;;;;;;;4513918;28;20565;-61
2021/07/23 00:30:00;;;;;;;3.13;2.60;;;;;;;;;;4531437;28;20029;-61
2021/07/23 00:32:11;;;;;;;3.13;2.20;;;;;;;;;;4500298;28;20837;-61
2021/07/23 00:34:21;;;;;;;3.67;2.53;;;;;;;;;;4532196;28;20029;-61
2021/07/23 00:36:32;;;;;;;2.87;2.30;;;;;;;;;;4532282;28;20390;-61
2021/07/23 00:38:43;;;;;;;3.60;2.23;;;;;;;;;;4530600;28;20029;-61
2021/07/23 00:40:53;;;;;;;2.88;2.20;;;;;;;;;;4523010;28;20029;-61
2021/07/23 00:43:04;;;;;;;2.93;2.47;;;;;;;;;;4516645;28;20491;-61
2021/07/23 00:45:15;;;;;;;3.67;2.30;;;;;;;;;;4519897;28;20144;-61
2021/07/23 00:47:26;;;;;;;2.63;2.17;;;;;;;;;;4516340;28;20856;-60
2021/07/23 00:49:37;;;;;;;;;;;;;;;;;;4523041;28;20154;-60
2021/07/23 00:51:49;;;;;;;2.73;2.10;;;;;;;;;;4531525;28;19917;-61
2021/07/23 00:53:59;;;;;;;;;;;;;;;;;;4518070;28;20039;-61
2021/07/23 00:56:11;;;;;;;2.07;1.70;;;;;;;;;;4517544;28;20799;-61
2021/07/23 00:58:25;;;;;;;2.93;1.97;;;;;;;;;;4523127;28;20040;-61
2021/07/23 01:00:39;;;;;;;3.80;2.17;;;;;;;;;;4513098;28;20904;-61
2021/07/23 01:02:52;;;;;;;2.03;1.83;;;;;;;;;;4522799;28;20034;-60
2021/07/23 01:05:04;;;;;;;2.45;2.00;;;;;;;;;;4499627;28;20034;-61
2021/07/23 01:07:14;;;;;;;2.08;1.88;;;;;;;;;;4530851;28;20041;-61
2021/07/23 01:09:25;;;;;;;2.50;2.10;;;;;;;;;;4532795;28;20046;-61
2021/07/23 01:11:37;;;;;;;2.88;2.03;;;;;;;;;;4517075;28;20037;-61
2021/07/23 01:13:59;;;;;;;3.28;2.10;;;;;;;;;;4528980;28;20044;-61
2021/07/23 01:16:11;;;;;;;2.78;1.90;;;;;;;;;;4512134;28;20529;-60
2021/07/23 01:18:22;;;;;;;2.75;1.92;;;;;;;;;;4520600;28;20145;-61
2021/07/23 01:20:40;;;;;;;2.28;1.77;;;;;;;;;;4508738;28;20089;-61
2021/07/23 01:22:54;;;;;;;2.70;1.83;;;;;;;;;;4512583;28;20045;-61
2021/07/23 01:25:05;;;;;;;2.92;2.00;;;;;;;;;;4519713;28;20037;-61
2021/07/23 01:27:17;;;;;;;2.00;1.73;;;;;;;;;;4515913;28;20033;-60
2021/07/23 01:29:46;;;;;;;2.38;2.00;;;;;;;;;;4507750;28;20048;-61
2021/07/23 01:31:57;;;;;;;2.28;1.80;;;;;;;;;;4528933;28;20161;-61
2021/07/23 01:34:08;;;;;;;2.42;1.77;;;;;;;;;;4514764;28;20044;-61
2021/07/23 01:36:18;;;;;;;2.83;1.70;;;;;;;;;;4530439;28;21338;-61
2021/07/23 01:38:37;;;;;;;1.73;1.60;;;;;;;;;;4511818;28;20042;-61
2021/07/23 01:40:48;;;;;;;2.33;1.67;;;;;;;;;;4514835;28;20034;-61
2021/07/23 01:42:58;;;;;;;2.00;1.80;;;;;;;;;;4510437;28;20574;-61
2021/07/23 01:45:09;;;;;;;2.57;1.70;;;;;;;;;;4498927;28;20044;-61
2021/07/23 01:47:20;;;;;;;2.08;1.88;;;;;;;;;;4511197;28;20165;-60
2021/07/23 01:49:31;;;;;;;3.13;1.97;;;;;;;;;;4530094;28;20200;-60
2021/07/23 01:51:41;;;;;;;1.90;1.70;;;;;;;;;;4515346;28;20065;-61
2021/07/23 01:54:00;;;;;;;1.50;1.40;;;;;;;;;;4518344;28;20037;-61
2021/07/23 01:56:12;;;;;;;2.40;1.80;;;;;;;;;;4498594;28;20034;-61
2021/07/23 01:58:24;;;;;;;2.22;1.83;;;;;;;;;;4513989;28;20022;-61
2021/07/23 02:00:35;;;;;;;2.08;1.80;;;;;;;;;;4518095;28;20168;-61
2021/07/23 02:02:49;;;;;;;2.83;1.80;;;;;;;;;;4516489;28;20038;-61
2021/07/23 02:05:07;;;;;;;1.92;1.70;;;;;;;;;;4510609;28;20034;-61
2021/07/23 02:07:37;;;;;;;4.35;2.00;;;;;;;;;;4513940;28;20148;-61
2021/07/23 02:09:49;;;;;;;3.05;1.77;;;;;;;;;;4516102;28;20057;-61
2021/07/23 02:12:00;;;;;;;2.67;1.83;;;;;;;;;;4529572;28;20057;-61
2021/07/23 02:14:39;;;;;;;2.08;1.58;;;;;;;;;;4512957;28;20052;-61
2021/07/23 02:16:50;;;;;;;2.40;1.50;;;;;;;;;;4529570;28;20049;-61
2021/07/23 02:19:01;;;;;;;;;;;;;;;;;;4522098;28;20561;-61
2021/07/23 02:21:31;;;;;;;1.90;1.70;;;;;;;;;;4516105;28;19921;-61
2021/07/23 02:23:41;;;;;;;2.90;1.90;;;;;;;;;;4518315;28;20037;-61
2021/07/23 02:25:52;;;;;;;2.13;1.73;;;;;;;;;;4521642;28;20034;-60
2021/07/23 02:28:03;;;;;;;2.38;1.80;;;;;;;;;;4515389;28;20036;-61
2021/07/23 02:30:16;;;;;;;2.33;1.80;;;;;;;;;;4515391;28;20037;-60
2021/07/23 02:32:31;;;;;;;2.05;1.70;;;;;;;;;;4506552;28;20152;-61
2021/07/23 02:34:41;;;;;;;1.90;1.70;;;;;;;;;;4507134;28;20045;-61
2021/07/23 02:36:51;;;;;;;2.10;1.70;;;;;;;;;;4530398;28;20340;-61
2021/07/23 02:39:06;;;;;;;2.42;1.80;;;;;;;;;;4530288;28;20551;-61
2021/07/23 02:41:22;;;;;;;1.80;1.48;;;;;;;;;;4505913;28;20046;-61
2021/07/23 02:43:32;;;;;;;2.10;1.60;;;;;;;;;;4514773;28;20268;-61
2021/07/23 02:45:43;;;;;;;2.17;1.70;;;;;;;;;;4512366;28;20030;-61
2021/07/23 02:47:53;;;;;;;1.73;1.50;;;;;;;;;;4512368;28;20070;-61
2021/07/23 02:50:05;;;;;;;1.98;1.77;;;;;;;;;;4529957;28;20823;-60
2021/07/23 02:52:25;;;;;;;2.13;1.83;;;;;;;;;;4514190;28;20042;-61
2021/07/23 02:54:36;;;;;;;1.97;1.67;;;;;;;;;;4530405;28;20037;-61
2021/07/23 02:56:47;;;;;;;2.72;1.88;;;;;;;;;;4515143;28;20072;-61
2021/07/23 02:58:58;;;;;;;;;;;;;;;;;;4521458;28;20037;-61
2021/07/23 03:01:09;;;;;;;2.15;1.95;;;;;;;;;;4528699;28;19916;-61
2021/07/23 03:03:21;;;;;;;;;;;;;;;;;;4507684;28;20022;-61
2021/07/23 03:05:32;;;;;;;2.28;1.70;;;;;;;;;;4514626;28;19967;-61
2021/07/23 03:07:51;;;;;;;2.20;1.80;;;;;;;;;;4528168;28;20063;-61
2021/07/23 03:10:02;;;;;;;2.60;1.63;;;;;;;;;;4521740;28;20793;-61
2021/07/23 03:12:14;;;;;;;1.90;1.70;;;;;;;;;;4504793;28;20091;-61
2021/07/23 03:14:30;;;;;;;2.30;1.90;;;;;;;;;;4527493;28;20140;-60
2021/07/23 03:16:47;;;;;;;2.40;1.70;;;;;;;;;;4529844;28;20032;-61
2021/07/23 03:18:58;;;;;;;2.77;1.70;;;;;;;;;;4514917;28;20513;-61
2021/07/23 03:21:10;;;;;;;2.00;1.65;;;;;;;;;;4516183;28;20033;-61
2021/07/23 03:23:21;;;;;;;2.22;1.70;;;;;;;;;;4521040;28;20037;-61
2021/07/23 03:25:37;;;;;;;1.95;1.75;;;;;;;;;;4529141;28;20924;-61
2021/07/23 03:27:50;;;;;;;2.60;1.85;;;;;;;;;;4519751;28;20136;-61
2021/07/23 03:30:09;;;;;;;1.70;1.60;;;;;;;;;;4499704;28;20046;-61
2021/07/23 03:32:20;;;;;;;2.20;1.70;;;;;;;;;;4498813;28;20031;-61
2021/07/23 03:34:32;;;;;;;3.20;1.90;;;;;;;;;;4527918;28;21044;-61
2021/07/23 03:36:51;;;;;;;2.13;1.63;;;;;;;;;;4504264;28;20034;-61
2021/07/23 03:39:07;;;;;;;2.17;1.63;;;;;;;;;;4503697;28;20041;-61
2021/07/23 03:41:18;;;;;;;2.93;1.90;;;;;;;;;;4529981;28;20542;-60
2021/07/23 03:43:28;;;;;;;2.27;1.80;;;;;;;;;;4520415;28;20040;-61
2021/07/23 03:45:59;;;;;;;2.17;1.98;;;;;;;;;;4514269;28;20104;-61
2021/07/23 03:48:11;;;;;;;2.65;2.10;;;;;;;;;;4520806;28;20041;-61
2021/07/23 03:50:26;;;;;;;2.70;2.00;;;;;;;;;;4512401;28;20073;-61
2021/07/23 03:52:41;;;;;;;2.33;1.73;;;;;;;;;;4527663;28;20037;-61
2021/07/23 03:55:12;;;;;;;2.70;1.90;;;;;;;;;;4529420;28;20029;-61
2021/07/23 03:57:23;;;;;;;2.38;1.98;;;;;;;;;;4513767;28;20033;-61
2021/07/23 03:59:35;;;;;;;2.60;1.80;;;;;;;;;;4529471;28;20068;-61
2021/07/23 04:01:47;;;;;;;2.42;2.00;;;;;;;;;;4519961;28;20651;-61
2021/07/23 04:04:00;;;;;;;1.92;1.70;;;;;;;;;;4515053;28;20030;-61
2021/07/23 04:06:11;;;;;;;2.28;1.83;;;;;;;;;;4502696;28;21746;-61
2021/07/23 04:08:22;;;;;;;1.98;1.60;;;;;;;;;;4526332;28;20044;-60
2021/07/23 04:10:32;;;;;;;3.77;1.77;;;;;;;;;;4514193;28;20521;-61
2021/07/23 04:12:44;;;;;;;;;;;;;;;;;;4508451;28;20038;-61
2021/07/23 04:14:55;;;;;;;2.80;1.90;;;;;;;;;;4513860;28;19917;-61
2021/07/23 04:17:06;;;;;;;2.23;1.70;;;;;;;;;;4502670;28;20605;-61
2021/07/23 04:19:17;;;;;;;3.20;1.70;;;;;;;;;;4525433;28;20239;-61
2021/07/23 04:21:38;;;;;;;2.78;1.83;;;;;;;;;;4503843;28;20088;-61
2021/07/23 04:24:06;;;;;;;2.05;1.85;;;;;;;;;;4503154;28;20623;-61
2021/07/23 04:26:16;;;;;;;2.30;1.80;;;;;;;;;;4528818;28;20149;-61
2021/07/23 04:28:28;;;;;;;2.90;1.70;;;;;;;;;;4517153;28;20134;-61
2021/07/23 04:30:38;;;;;;;1.83;1.63;;;;;;;;;;4513590;28;20117;-61
2021/07/23 04:33:03;;;;;;;2.92;1.77;;;;;;;;;;4527089;28;20616;-61
2021/07/23 04:35:15;;;;;;;3.38;1.95;;;;;;;;;;4513394;28;20038;-61
2021/07/23 04:37:25;;;;;;;2.60;1.90;;;;;;;;;;4510095;28;20034;-60
2021/07/23 04:39:48;;;;;;;2.83;1.63;;;;;;;;;;4519226;28;20034;-61
2021/07/23 04:41:58;;;;;;;3.20;1.75;;;;;;;;;;4512739;28;20038;-60
2021/07/23 04:44:09;;;;;;;3.13;2.10;;;;;;;;;;4529463;28;20072;-60
2021/07/23 04:46:22;;;;;;;1.73;1.58;;;;;;;;;;4513171;28;20580;-61
2021/07/23 04:48:33;;;;;;;2.72;2.20;;;;;;;;;;4504839;28;20034;-61
2021/07/23 04:50:53;;;;;;;2.90;2.00;;;;;;;;;;4532158;28;20036;-61
2021/07/23 04:53:22;;;;;;;3.95;1.90;;;;;;;;;;4531357;28;20627;-60
2021/07/23 04:55:59;;;;;;;2.72;2.00;;;;;;;;;;4525796;28;20741;-60
2021/07/23 04:58:16;;;;;;;2.00;1.70;;;;;;;;;;4530477;28;20033;-60
2021/07/23 05:00:27;;;;;;;2.97;2.13;;;;;;;;;;4531037;28;20041;-61
2021/07/23 05:02:40;;;;;;;2.43;2.00;;;;;;;;;;4532595;28;20466;-61
2021/07/23 05:04:51;;;;;;;3.33;1.98;;;;;;;;;;4530426;28;20052;-60
2021/07/23 05:07:01;;;;;;;2.90;2.00;;;;;;;;;;4531002;28;20048;-60
2021/07/23 05:09:12;;;;;;;3.97;2.03;;;;;;;;;;4512618;28;20045;-61
2021/07/23 05:11:26;;;;;;;2.17;1.98;;;;;;;;;;4530761;28;20076;-61
2021/07/23 05:13:40;;;;;;;3.50;1.70;;;;;;;;;;4513963;28;20034;-61
2021/07/23 05:15:53;;;;;;;3.55;2.00;;;;;;;;;;4529655;28;20037;-61
2021/07/23 05:18:04;;;;;;;2.78;1.92;;;;;;;;;;4512401;28;20664;-60
2021/07/23 05:20:14;;;;;;;3.25;2.10;;;;;;;;;;4517890;28;20033;-61
2021/07/23 05:22:25;;;;;;;2.73;2.03;;;;;;;;;;4530001;28;20409;-60
2021/07/23 05:24:35;;;;;;;2.93;1.93;;;;;;;;;;4530918;28;20034;-61
2021/07/23 05:26:46;;;;;;;2.70;1.70;;;;;;;;;;4496418;28;20403;-61
2021/07/23 05:28:57;;;;;;;3.40;1.93;;;;;;;;;;4531106;28;20158;-61
2021/07/23 05:31:08;;;;;;;4.00;2.10;;;;;;;;;;4531635;28;20060;-61
2021/07/23 05:33:18;;;;;;;2.77;1.93;;;;;;;;;;4531846;28;20045;-61
2021/07/23 05:35:29;;;;;;;2.67;2.20;;;;;;;;;;4517077;28;20056;-62
2021/07/23 05:37:39;;;;;;;2.27;2.00;;;;;;;;;;4530694;28;20035;-61
2021/07/23 05:39:50;;;;;;;2.63;1.92;;;;;;;;;;4532328;28;20119;-61
2021/07/23 05:42:04;;;;;;;3.40;1.83;;;;;;;;;;4530937;28;20152;-61
2021/07/23 05:44:14;;;;;;;2.53;1.92;;;;;;;;;;4529383;28;20797;-61
2021/07/23 05:46:26;;;;;;;2.73;1.90;;;;;;;;;;4522112;28;20041;-61
2021/07/23 05:48:37;;;;;;;2.40;2.00;;;;;;;;;;4511498;28;20141;-61
2021/07/23 05:50:48;;;;;;;2.65;1.90;;;;;;;;;;4530038;28;20037;-61
2021/07/23 05:52:58;;;;;;;1.97;1.77;;;;;;;;;;4515490;28;20041;-61
2021/07/23 05:55:09;;;;;;;2.33;1.73;;;;;;;;;;4512354;28;20463;-61
2021/07/23 05:57:19;;;;;;;3.07;1.97;;;;;;;;;;4530677;28;20144;-60
2021/07/23 05:59:30;;;;;;;1.87;1.67;;;;;;;;;;4528899;28;20041;-61
2021/07/23 06:01:41;;;;;;;2.15;1.70;;;;;;;;;;4530195;28;20033;-60
2021/07/23 06:03:53;;;;;;;3.07;1.70;;;;;;;;;;4531091;28;20037;-59
2021/07/23 06:06:04;;;;;;;2.20;1.88;;;;;;;;;;4529568;28;20034;-60
2021/07/23 06:08:14;;;;;;;2.78;2.00;;;;;;;;;;4511485;28;20478;-60
2021/07/23 06:10:24;;;;;;;2.60;1.80;;;;;;;;;;4514909;28;20040;-60
2021/07/23 06:12:35;;;;;;;2.00;1.63;;;;;;;;;;4529392;28;20117;-60
2021/07/23 06:14:45;;;;;;;3.20;1.77;;;;;;;;;;4530250;28;20555;-66
2021/07/23 06:16:56;;;;;;;2.13;1.70;;;;;;;;;;4515917;28;20038;-67
2021/07/23 06:19:06;;;;;;;2.60;1.93;;;;;;;;;;4518496;28;20444;-60
2021/07/23 06:21:19;;;;;;;3.63;2.10;;;;;;;;;;4530522;28;20033;-60
2021/07/23 06:23:30;;;;;;;3.45;2.00;;;;;;;;;;4529768;28;20038;-60
2021/07/23 06:25:41;;;;;;;3.23;1.80;;;;;;;;;;4514030;28;20288;-60
2021/07/23 06:27:51;;;;;;;2.30;1.90;;;;;;;;;;4529679;28;20398;-60
2021/07/23 06:30:03;;;;;;;2.37;2.10;;;;;;;;;;4530047;28;20505;-60
2021/07/23 06:32:14;;;;;;;2.53;2.10;;;;;;;;;;4529288;28;20121;-60
2021/07/23 06:34:24;;;;;;;4.17;2.40;;;;;;;;;;4515533;28;20099;-60
2021/07/23 06:36:35;;;;;;;2.30;2.10;;;;;;;;;;4530199;28;20029;-59
2021/07/23 06:38:45;;;;;;;3.07;2.10;;;;;;;;;;4529972;28;20048;-60
2021/07/23 06:40:56;;;;;;;3.87;2.40;;;;;;;;;;4531025;28;20145;-61
2021/07/23 06:43:06;;;;;;;3.13;2.60;;;;;;;;;;4515109;28;20101;-61
2021/07/23 06:45:17;;;;;;;3.10;2.50;;;;;;;;;;4521333;28;20486;-61
2021/07/23 06:47:27;;;;;;;2.57;2.03;;;;;;;;;;4503542;28;20096;-61
2021/07/23 06:49:38;;;;;;;4.30;2.60;;;;;;;;;;4518929;28;20199;-60
2021/07/23 06:51:48;;;;;;;2.77;2.30;;;;;;;;;;4529763;28;20033;-61
2021/07/23 06:53:59;;;;;;;3.30;2.60;;;;;;;;;;4514910;28;20041;-62
2021/07/23 06:56:09;;;;;;;3.63;2.88;;;;;;;;;;4512583;28;20026;-62
2021/07/23 06:58:20;;;;;;;3.30;2.60;;;;;;;;;;4511992;28;20065;-61
2021/07/23 07:00:30;;;;;;;3.47;2.70;;;;;;;;;;4529734;28;20029;-61
2021/07/23 07:02:41;;;;;;;4.97;2.83;;;;;;;;;;4531390;28;20061;-61
2021/07/23 07:04:51;;;;;;;3.13;2.47;;;;;;;;;;4511922;28;20533;-61
2021/07/23 07:07:07;;;;;;;4.30;3.03;;;;;;;;;;4516296;28;20092;-62
2021/07/23 07:09:17;;;;;;;4.68;3.25;;;;;;;;;;4529077;28;20038;-62
2021/07/23 07:11:28;;;;;;;4.00;2.97;;;;;;;;;;4528216;28;21133;-61
2021/07/23 07:13:39;;;;;;;4.47;3.10;;;;;;;;;;4529650;28;20029;-62
2021/07/23 07:15:49;;;;;;;3.73;2.90;;;;;;;;;;4530072;28;20041;-61
2021/07/23 07:18:00;;;;;;;5.77;3.60;;;;;;;;;;4509052;28;20038;-61
2021/07/23 07:20:12;;;;;;;4.22;3.03;;;;;;;;;;4528858;28;20034;-60
2021/07/23 07:22:23;;;;;;;3.80;3.10;;;;;;;;;;4520526;28;20124;-61
2021/07/23 07:24:33;;;;;;;3.05;2.60;;;;;;;;;;4528013;28;20037;-62
2021/07/23 07:26:48;;;;;;;3.77;2.53;;;;;;;;;;4529638;28;20037;-61
2021/07/23 07:28:59;;;;;;;3.35;2.70;;;;;;;;;;4512632;28;21042;-61
2021/07/23 07:31:14;;;;;;;3.77;2.90;;;;;;;;;;4512726;28;20043;-62
2021/07/23 07:33:24;;;;;;;3.80;2.95;;;;;;;;;;4514930;28;20037;-62
2021/07/23 07:35:35;;;;;;;3.90;2.70;;;;;;;;;;4512955;28;20038;-61
2021/07/23 07:37:45;;;;;;;4.63;3.10;;;;;;;;;;4529198;28;20033;-61
2021/07/23 07:39:56;;;;;;;4.07;2.77;;;;;;;;;;4529392;28;20414;-61
2021/07/23 07:42:06;;;;;;;3.73;2.77;;;;;;;;;;4528804;28;20042;-61
2021/07/23 07:44:17;;;;;;;4.63;3.10;;;;;;;;;;4528457;28;20559;-61
2021/07/23 07:46:27;;;;;;;2.97;2.43;;;;;;;;;;4510208;28;20596;-61
2021/07/23 07:48:38;;;;;;;4.63;2.80;;;;;;;;;;4528126;28;20125;-60
2021/07/23 07:50:48;;;;;;;4.07;2.90;;;;;;;;;;4517626;28;20124;-61
2021/07/23 07:52:59;;;;;;;4.57;2.87;;;;;;;;;;4513540;28;20034;-61
2021/07/23 07:55:10;;;;;;;4.30;2.97;;;;;;;;;;4526833;28;20046;-62
2021/07/23 07:57:21;;;;;;;3.95;2.90;;;;;;;;;;4527188;28;20033;-61
2021/07/23 07:59:31;;;;;;;4.97;3.03;;;;;;;;;;4528502;28;20644;-60
2021/07/23 08:01:42;;;;;;;5.33;3.20;;;;;;;;;;4511241;28;20049;-61
2021/07/23 08:03:52;;;;;;;4.03;3.17;;;;;;;;;;4517897;28;20084;-60
2021/07/23 08:06:07;;;;;;;3.73;2.90;;;;;;;;;;4529572;28;20095;-61
2021/07/23 08:08:17;;;;;;;3.83;2.80;;;;;;;;;;4512873;28;20474;-61
2021/07/23 08:10:30;;;;;;;4.73;2.80;;;;;;;;;;4528592;28;20041;-61
2021/07/23 08:12:41;;;;;;;4.63;2.70;;;;;;;;;;4497981;28;20809;-61
2021/07/23 08:14:52;;;;;;;3.97;2.77;;;;;;;;;;4512839;28;20049;-61
2021/07/23 08:17:02;;;;;;;4.47;3.03;;;;;;;;;;4518543;28;20038;-61
2021/07/23 08:19:13;;;;;;;3.20;2.60;;;;;;;;;;4528742;28;20043;-61
2021/07/23 08:21:23;;;;;;;3.67;2.80;;;;;;;;;;4529398;28;20033;-61
2021/07/23 08:23:35;;;;;;;4.13;3.00;;;;;;;;;;4522289;28;20533;-61
2021/07/23 08:25:49;;;;;;;3.28;2.50;;;;;;;;;;4520351;28;20216;-61
2021/07/23 08:28:00;;;;;;;3.33;2.28;;;;;;;;;;4530510;28;20037;-60
2021/07/23 08:30:11;;;;;;;3.53;2.70;;;;;;;;;;4532506;28;20511;-61
2021/07/23 08:32:21;;;;;;;3.55;2.60;;;;;;;;;;4532108;28;20175;-62
2021/07/23 08:34:32;;;;;;;2.63;2.10;;;;;;;;;;4531753;28;20044;-61
2021/07/23 08:36:42;;;;;;;3.57;2.50;;;;;;;;;;4531287;28;20049;-61
2021/07/23 08:38:53;;;;;;;3.63;2.30;;;;;;;;;;4516760;28;20038;-60
2021/07/23 08:41:03;;;;;;;3.33;2.20;;;;;;;;;;4522051;28;20513;-61
2021/07/23 08:43:14;;;;;;;3.60;2.20;;;;;;;;;;4530938;28;20116;-61
2021/07/23 08:45:25;;;;;;;3.58;2.40;;;;;;;;;;4524070;28;20044;-61
2021/07/23 08:47:36;;;;;;;3.57;2.37;;;;;;;;;;4530725;28;20047;-61
2021/07/23 08:49:47;;;;;;;2.70;2.25;;;;;;;;;;4530712;28;20049;-60
2021/07/23 08:51:57;;;;;;;2.13;1.88;;;;;;;;;;4531942;28;20128;-61
2021/07/23 08:54:08;;;;;;;2.40;2.00;;;;;;;;;;4515567;28;20038;-61
2021/07/23 08:56:18;;;;;;;3.23;2.33;;;;;;;;;;4506387;28;20054;-61
2021/07/23 08:58:30;;;;;;;2.40;1.90;;;;;;;;;;4532217;28;20029;-61
2021/07/23 09:00:41;;;;;;;2.63;1.92;;;;;;;;;;4529932;28;20021;-61
2021/07/23 09:02:51;;;;;;;3.00;2.10;;;;;;;;;;4515482;28;20425;-61
2021/07/23 09:05:13;;;;;;;5.73;2.30;;;;;;;;;;4530856;28;20494;-61
2021/07/23 09:07:25;;;;;;;2.70;2.30;;;;;;;;;;4502520;28;20572;-61
2021/07/23 09:09:36;;;;;;;3.50;2.05;;;;;;;;;;4531104;28;20050;-62
2021/07/23 09:11:58;;;;;;;2.07;1.87;;;;;;;;;;4529816;28;20063;-61
2021/07/23 09:14:12;;;;;;;2.90;2.30;;;;;;;;;;4531053;28;20656;-61
2021/07/23 09:16:24;;;;;;;4.43;1.90;;;;;;;;;;4522216;28;20033;-61
2021/07/23 09:18:40;;;;;;;2.88;2.10;;;;;;;;;;4504738;28;20038;-60
2021/07/23 09:20:58;;;;;;;3.47;2.08;;;;;;;;;;4531224;28;20065;-61
2021/07/23 09:23:08;;;;;;;2.17;1.90;;;;;;;;;;4523210;28;20723;-60
2021/07/23 09:25:43;;;;;;;3.27;2.10;;;;;;;;;;4530739;28;20037;-60
2021/07/23 09:27:53;;;;;;;2.97;2.10;;;;;;;;;;4530651;28;20061;-61
2021/07/23 09:30:09;;;;;;;2.47;1.77;;;;;;;;;;4531789;28;20132;-61
2021/07/23 09:32:20;;;;;;;2.30;1.88;;;;;;;;;;4511313;28;20061;-61
2021/07/23 09:34:30;;;;;;;2.73;2.07;;;;;;;;;;4516742;28;20153;-61
2021/07/23 09:36:41;;;;;;;3.10;2.10;;;;;;;;;;4531563;28;20074;-61
2021/07/23 09:39:01;;;;;;;3.28;2.10;;;;;;;;;;4505485;28;20034;-61
2021/07/23 09:41:13;;;;;;;2.00;1.80;;;;;;;;;;4530412;28;20029;-61
2021/07/23 09:43:29;;;;;;;2.65;2.00;;;;;;;;;;4517457;28;21091;-60
2021/07/23 09:45:39;;;;;;;2.42;1.85;;;;;;;;;;4530662;28;20986;-61
2021/07/23 09:47:50;;;;;;;1.93;1.67;;;;;;;;;;4500375;28;20038;-61
2021/07/23 09:50:01;;;;;;;3.87;1.90;;;;;;;;;;4531928;28;20577;-61
2021/07/23 09:52:12;;;;;;;;;;;;;;;;;;4531347;28;20541;-61
2021/07/23 09:54:22;;;;;;;2.53;1.85;;;;;;;;;;4516144;28;19917;-60
2021/07/23 09:56:33;;;;;;;2.57;1.97;;;;;;;;;;4530514;28;20025;-61
2021/07/23 09:58:52;;;;;;;2.38;1.83;;;;;;;;;;4513071;28;20870;-61
2021/07/23 10:01:08;;;;;;;3.15;2.20;;;;;;;;;;4514880;28;20808;-61
2021/07/23 10:03:19;;;;;;;4.13;2.00;;;;;;;;;;4521837;28;20034;-61
2021/07/23 10:05:34;;;;;;;2.38;1.98;;;;;;;;;;4521621;28;20037;-61
2021/07/23 10:08:05;;;;;;;3.88;2.17;;;;;;;;;;4529693;28;20048;-61
2021/07/23 10:10:18;;;;;;;2.67;2.10;;;;;;;;;;4528991;28;20084;-61
2021/07/23 10:12:29;;;;;;;3.67;2.40;;;;;;;;;;4512600;28;20173;-60
2021/07/23 10:14:43;;;;;;;2.33;1.98;;;;;;;;;;4505404;28;20180;-61
2021/07/23 10:16:54;;;;;;;2.47;1.83;;;;;;;;;;4530527;28;20041;-61
2021/07/23 10:19:07;;;;;;;3.57;2.50;;;;;;;;;;4515965;28;20540;-61
2021/07/23 10:21:17;;;;;;;3.38;2.30;;;;;;;;;;4521701;28;20701;-62
2021/07/23 10:23:28;;;;;;;3.07;2.23;;;;;;;;;;4530508;28;20431;-62
2021/07/23 10:25:39;;;;;;;3.47;2.30;;;;;;;;;;4513168;28;20084;-62
2021/07/23 10:27:49;;;;;;;4.77;2.70;;;;;;;;;;4511474;28;20030;-62
2021/07/23 10:30:00;;;;;;;3.40;2.23;;;;;;;;;;4513068;28;21050;-62
2021/07/23 10:32:30;;;;;;;3.23;2.20;;;;;;;;;;4528209;28;20021;-62
2021/07/23 10:34:43;;;;;;;3.42;2.20;;;;;;;;;;4511399;28;20161;-61
2021/07/23 10:36:53;;;;;;;3.75;2.22;;;;;;;;;;4529251;28;20709;-60
2021/07/23 10:39:07;;;;;;;3.60;2.60;;;;;;;;;;4521308;28;20124;-60
2021/07/23 10:41:17;;;;;;;3.63;2.78;;;;;;;;;;4528944;28;20037;-61
2021/07/23 10:43:37;;;;;;;3.73;2.47;;;;;;;;;;4515398;28;20084;-61
2021/07/23 10:45:47;;;;;;;4.10;2.70;;;;;;;;;;4526749;28;20040;-61
2021/07/23 10:47:58;;;;;;;3.07;2.20;;;;;;;;;;4512112;28;20048;-61
2021/07/23 10:50:13;;;;;;;3.23;2.10;;;;;;;;;;4529991;28;20052;-61
2021/07/23 10:52:28;;;;;;;4.07;2.72;;;;;;;;;;4529912;28;20040;-61
2021/07/23 10:55:09;;;;;;;3.20;2.42;;;;;;;;;;4528089;28;20569;-61
2021/07/23 10:57:19;;;;;;;3.95;2.60;;;;;;;;;;4492155;28;20054;-61
2021/07/23 10:59:39;;;;;;;4.23;3.03;;;;;;;;;;4528307;28;20035;-61
2021/07/23 11:01:50;;;;;;;3.60;2.80;;;;;;;;;;4531068;28;20033;-61
2021/07/23 11:04:01;;;;;;;3.92;2.83;;;;;;;;;;4511014;28;20034;-62
2021/07/23 11:06:17;;;;;;;3.97;2.85;;;;;;;;;;4528388;28;20037;-61
2021/07/23 11:08:28;;;;;;;4.18;2.58;;;;;;;;;;4504172;28;20030;-60
2021/07/23 11:10:39;;;;;;;3.55;2.83;;;;;;;;;;4520795;28;20583;-61
2021/07/23 11:12:49;;;;;;;3.90;2.90;;;;;;;;;;4512289;28;20042;-61
2021/07/23 11:15:05;;;;;;;4.70;3.40;;;;;;;;;;4529268;28;20029;-61
2021/07/23 11:17:16;;;;;;;4.13;2.72;;;;;;;;;;4530550;28;20037;-60
2021/07/23 11:19:26;;;;;;;3.63;2.60;;;;;;;;;;4528883;28;20029;-60
2021/07/23 11:21:38;;;;;;;4.37;2.90;;;;;;;;;;4529113;28;20478;-60
2021/07/23 11:23:49;;;;;;;4.22;2.75;;;;;;;;;;4514948;28;20065;-60
2021/07/23 11:26:01;;;;;;;4.95;3.00;;;;;;;;;;4511824;28;20032;-60
2021/07/23 11:28:12;;;;;;;4.53;2.60;;;;;;;;;;4511373;28;20062;-60
2021/07/23 11:30:25;;;;;;;4.90;2.97;;;;;;;;;;4528138;28;20141;-61
2021/07/23 11:32:46;;;;;;;3.78;2.63;;;;;;;;;;4529433;28;20029;-60
2021/07/23 11:35:07;;;;;;;4.65;3.17;;;;;;;;;;4510379;28;20902;-61
2021/07/23 11:37:37;;;;;;;5.88;2.92;;;;;;;;;;4497788;28;20528;-61
2021/07/23 11:39:57;;;;;;;5.05;3.05;;;;;;;;;;4517643;28;20825;-61
2021/07/23 11:42:08;;;;;;;4.18;2.90;;;;;;;;;;4520905;28;20240;-61
2021/07/23 11:44:18;;;;;;;4.10;2.93;;;;;;;;;;4528468;28;20152;-61
2021/07/23 11:46:29;;;;;;;3.97;2.87;;;;;;;;;;4529468;28;20041;-61
2021/07/23 11:48:39;;;;;;;5.03;3.40;;;;;;;;;;4527254;28;20398;-62
2021/07/23 11:50:56;;;;;;;5.47;3.50;;;;;;;;;;4529492;28;20051;-61
2021/07/23 11:53:07;;;;;;;4.60;2.90;;;;;;;;;;4527949;28;21305;-60
2021/07/23 11:55:18;;;;;;;4.07;2.87;;;;;;;;;;4527740;28;20148;-60
2021/07/23 11:57:31;;;;;;;5.35;3.17;;;;;;;;;;4508957;28;20030;-59
2021/07/23 11:59:41;;;;;;;3.65;3.00;;;;;;;;;;4532708;28;20029;-60
2021/07/23 12:01:51;;;;;;;4.73;3.27;;;;;;;;;;4531686;28;20033;-59
2021/07/23 12:04:02;;;;;;;4.67;3.07;;;;;;;;;;4531983;28;20545;-60
2021/07/23 12:06:14;;;;;;;3.63;3.00;;;;;;;;;;4514183;28;20065;-61
2021/07/23 12:08:25;;;;;;;4.43;3.05;;;;;;;;;;4531939;28;20119;-60
2021/07/23 12:10:36;;;;;;;3.53;2.80;;;;;;;;;;4530821;28;20577;-60
2021/07/23 12:12:46;;;;;;;3.93;3.00;;;;;;;;;;4518155;28;20039;-61
2021/07/23 12:15:21;;;;;;;5.20;3.10;;;;;;;;;;4519641;28;20033;-61
2021/07/23 12:17:32;;;;;;;4.20;3.15;;;;;;;;;;4523046;28;20172;-60
2021/07/23 12:19:42;;;;;;;5.07;3.00;;;;;;;;;;4516979;28;20157;-61
2021/07/23 12:22:08;;;;;;;3.70;2.50;;;;;;;;;;4513989;28;20038;-60
2021/07/23 12:24:29;;;;;;;4.13;3.00;;;;;;;;;;4504560;28;20042;-61
2021/07/23 12:26:41;;;;;;;3.70;2.70;;;;;;;;;;4516558;28;20100;-60
2021/07/23 12:28:56;;;;;;;4.30;2.90;;;;;;;;;;4512635;28;20670;-60
2021/07/23 12:31:17;;;;;;;4.10;2.50;;;;;;;;;;4531750;28;20036;-61
2021/07/23 12:33:28;;;;;;;5.05;3.00;;;;;;;;;;4531806;28;20044;-61
2021/07/23 12:35:40;;;;;;;4.88;3.05;;;;;;;;;;4523259;28;20041;-61
2021/07/23 12:38:05;;;;;;;4.00;2.83;;;;;;;;;;4532455;28;20037;-60
2021/07/23 12:40:15;;;;;;;3.60;2.70;;;;;;;;;;4533533;28;20584;-61
2021/07/23 12:42:27;;;;;;;3.33;2.57;;;;;;;;;;4530490;28;20397;-62
2021/07/23 12:44:38;;;;;;;3.58;2.78;;;;;;;;;;4531659;28;20474;-61
2021/07/23 12:46:49;;;;;;;3.17;2.63;;;;;;;;;;4532579;28;20033;-60
2021/07/23 12:49:19;;;;;;;4.85;2.65;;;;;;;;;;4530638;28;20045;-61
2021/07/23 12:51:29;;;;;;;3.00;2.35;;;;;;;;;;4530621;28;21243;-61
2021/07/23 12:53:43;;;;;;;3.10;2.27;;;;;;;;;;4532194;28;20032;-60
2021/07/23 12:56:07;;;;;;;5.13;2.40;;;;;;;;;;4515115;28;20038;-60
2021/07/23 12:58:41;;;;;;;4.25;2.50;;;;;;;;;;4515675;28;20121;-61
2021/07/23 13:00:52;;;;;;;4.57;2.63;;;;;;;;;;4532051;28;20046;-60
2021/07/23 13:03:02;;;;;;;4.00;2.57;;;;;;;;;;4515771;28;20320;-60
2021/07/23 13:05:13;;;;;;;3.60;2.70;;;;;;;;;;4530398;28;20037;-61
2021/07/23 13:07:23;;;;;;;2.87;2.40;;;;;;;;;;4500932;28;20049;-60
2021/07/23 13:09:41;;;;;;;3.77;2.77;;;;;;;;;;4518161;28;20048;-61
2021/07/23 13:11:52;;;;;;;3.60;2.50;;;;;;;;;;4531689;28;20824;-60
2021/07/23 13:14:02;;;;;;;4.10;2.50;;;;;;;;;;4513058;28;21300;-60
2021/07/23 13:16:17;;;;;;;4.10;2.77;;;;;;;;;;4513637;28;20048;-61
2021/07/23 13:18:27;;;;;;;3.45;2.58;;;;;;;;;;4521423;28;20060;-62
2021/07/23 13:20:38;;;;;;;3.63;3.00;;;;;;;;;;4529002;28;20651;-61